Time;durP1;ratioP1;P1;durP2;ratioP2;P2;SDS_P1;SDS_P2;PMS_P1;PMS_P2;Temp;Humidity;BMP_temperature;BMP_pressure;BME280_temperature;BME280_humidity;BME280_pressure;Samples;Min_cycle;Max_cycle;Signal;HPM_P1;HPM_P2
2022/01/05 00:02:24;;;;;;;61.45;41.35;;;;;;;;;;5072036;28;20028;-85
2022/01/05 00:04:50;;;;;;;61.45;42.17;;;;;;;;;;5073279;28;20047;-85
2022/01/05 00:07:17;;;;;;;55.13;35.42;;;;;;;;;;5071657;28;20040;-84
2022/01/05 00:09:43;;;;;;;57.45;35.83;;;;;;;;;;5073050;28;20033;-81
2022/01/05 00:12:13;;;;;;;44.05;31.90;;;;;;;;;;5073040;28;20020;-80
2022/01/05 00:14:39;;;;;;;33.17;24.13;;;;;;;;;;5071790;28;20031;-82
2022/01/05 00:17:05;;;;;;;26.13;18.77;;;;;;;;;;5073104;28;20487;-78
2022/01/05 00:19:34;;;;;;;33.38;21.13;;;;;;;;;;5073026;28;20391;-82
2022/01/05 00:22:00;;;;;;;38.95;27.27;;;;;;;;;;5073064;28;20025;-81
2022/01/05 00:24:26;;;;;;;54.63;32.75;;;;;;;;;;5073661;28;20360;-79
2022/01/05 00:26:52;;;;;;;54.35;35.13;;;;;;;;;;5072656;28;20109;-80
2022/01/05 00:29:19;;;;;;;54.13;34.13;;;;;;;;;;5072884;28;20035;-80
2022/01/05 00:31:45;;;;;;;47.17;30.38;;;;;;;;;;5072899;28;20020;-81
2022/01/05 00:34:11;;;;;;;43.40;28.80;;;;;;;;;;5071689;28;20112;-81
2022/01/05 00:36:37;;;;;;;42.03;27.02;;;;;;;;;;5071514;28;20111;-82
2022/01/05 00:39:03;;;;;;;37.33;23.48;;;;;;;;;;5071626;28;20078;-80
2022/01/05 00:41:30;;;;;;;26.25;18.38;;;;;;;;;;5071567;28;20063;-82
2022/01/05 00:43:56;;;;;;;28.83;17.60;;;;;;;;;;5072993;28;20074;-80
2022/01/05 00:46:22;;;;;;;30.58;21.10;;;;;;;;;;5072734;28;20024;-78
2022/01/05 00:48:50;;;;;;;94.25;66.78;;;;;;;;;;5072707;28;20491;-81
2022/01/05 00:51:17;;;;;;;72.82;50.40;;;;;;;;;;5072876;28;20036;-82
2022/01/05 00:53:43;;;;;;;36.22;25.38;;;;;;;;;;5072716;28;20108;-82
2022/01/05 00:56:09;;;;;;;22.95;16.42;;;;;;;;;;5071396;28;20479;-80
2022/01/05 00:58:35;;;;;;;25.85;17.45;;;;;;;;;;5072722;28;20103;-84
2022/01/05 01:01:02;;;;;;;27.80;20.92;;;;;;;;;;5072524;28;20411;-82
2022/01/05 01:03:28;;;;;;;45.15;28.80;;;;;;;;;;5076263;28;20065;-82
2022/01/05 01:05:57;;;;;;;65.93;42.17;;;;;;;;;;5076196;28;20061;-79
2022/01/05 01:08:23;;;;;;;67.30;46.33;;;;;;;;;;5076021;28;20391;-80
2022/01/05 01:10:50;;;;;;;52.13;34.17;;;;;;;;;;5076148;28;20055;-82
2022/01/05 01:13:20;;;;;;;35.78;23.17;;;;;;;;;;5075919;28;20073;-81
2022/01/05 01:15:47;;;;;;;27.90;19.80;;;;;;;;;;5074142;28;20119;-81
2022/01/05 01:18:14;;;;;;;30.48;20.88;;;;;;;;;;5075293;28;20043;-83
2022/01/05 01:20:40;;;;;;;55.88;35.55;;;;;;;;;;5075290;28;20030;-80
2022/01/05 01:23:06;;;;;;;35.67;25.13;;;;;;;;;;5075305;28;20074;-79
2022/01/05 01:25:33;;;;;;;26.50;18.63;;;;;;;;;;5075242;28;20044;-81
2022/01/05 01:28:02;;;;;;;22.33;15.48;;;;;;;;;;5071340;28;20033;-82
2022/01/05 01:30:31;;;;;;;20.90;16.50;;;;;;;;;;5074425;28;20021;-79
2022/01/05 01:33:03;;;;;;;29.23;20.67;;;;;;;;;;5073324;28;20045;-78
2022/01/05 01:35:29;;;;;;;43.75;28.00;;;;;;;;;;5074633;28;20031;-79
2022/01/05 01:37:56;;;;;;;30.17;21.33;;;;;;;;;;5075559;28;20021;-81
2022/01/05 01:40:24;;;;;;;29.65;20.95;;;;;;;;;;5075653;28;20020;-80
2022/01/05 01:42:51;;;;;;;31.40;22.33;;;;;;;;;;5073909;28;20043;-82
2022/01/05 01:45:17;;;;;;;28.13;20.17;;;;;;;;;;5075606;28;20099;-80
2022/01/05 01:47:46;;;;;;;29.10;20.33;;;;;;;;;;5075465;28;20043;-78
2022/01/05 01:50:15;;;;;;;27.85;18.65;;;;;;;;;;5074185;28;20073;-80
2022/01/05 01:52:41;;;;;;;29.67;18.80;;;;;;;;;;5075535;28;20115;-83
2022/01/05 01:55:08;;;;;;;36.00;21.13;;;;;;;;;;5075362;28;20081;-79
2022/01/05 01:57:35;;;;;;;29.05;19.00;;;;;;;;;;5075300;28;20029;-80
2022/01/05 02:00:01;;;;;;;34.65;23.40;;;;;;;;;;5075387;28;20028;-82
2022/01/05 02:02:27;;;;;;;37.95;25.98;;;;;;;;;;5073988;28;20032;-85
2022/01/05 02:04:56;;;;;;;29.52;18.50;;;;;;;;;;5074279;28;20108;-84
2022/01/05 02:07:22;;;;;;;21.25;14.68;;;;;;;;;;5073081;28;20039;-85
2022/01/05 02:09:48;;;;;;;19.85;15.45;;;;;;;;;;5074477;28;20037;-84
2022/01/05 02:12:15;;;;;;;17.65;12.70;;;;;;;;;;5073866;28;20036;-83
2022/01/05 02:14:41;;;;;;;17.25;12.73;;;;;;;;;;5074904;28;20032;-83
2022/01/05 02:17:17;;;;;;;18.00;12.40;;;;;;;;;;5075194;28;20089;-84
2022/01/05 02:19:43;;;;;;;18.25;14.05;;;;;;;;;;5074903;28;20025;-82
2022/01/05 02:22:09;;;;;;;18.95;14.18;;;;;;;;;;5074933;28;20029;-85
2022/01/05 02:24:36;;;;;;;20.17;14.60;;;;;;;;;;5074627;28;20028;-84
2022/01/05 02:27:02;;;;;;;21.02;16.08;;;;;;;;;;5073467;28;20036;-86
2022/01/05 02:29:28;;;;;;;29.73;22.48;;;;;;;;;;5074546;28;20032;-85
2022/01/05 02:31:56;;;;;;;36.00;23.63;;;;;;;;;;5074683;28;20032;-84
2022/01/05 02:34:23;;;;;;;95.13;60.42;;;;;;;;;;5074416;28;20143;-83
2022/01/05 02:36:49;;;;;;;33.10;21.45;;;;;;;;;;5074649;28;20464;-85
2022/01/05 02:39:15;;;;;;;44.40;27.40;;;;;;;;;;5074545;28;20025;-83
2022/01/05 02:41:43;;;;;;;44.88;31.23;;;;;;;;;;5074444;28;20035;-83
2022/01/05 02:44:09;;;;;;;40.40;27.30;;;;;;;;;;5074616;28;20025;-83
2022/01/05 02:46:35;;;;;;;42.92;33.88;;;;;;;;;;5074429;28;20024;-82
2022/01/05 02:49:04;;;;;;;46.60;37.22;;;;;;;;;;5074421;28;20099;-82
2022/01/05 02:51:30;;;;;;;30.08;23.17;;;;;;;;;;5074323;28;20111;-83
2022/01/05 02:53:56;;;;;;;28.75;18.02;;;;;;;;;;5074250;28;20024;-84
2022/01/05 02:56:23;;;;;;;34.90;20.58;;;;;;;;;;5072910;28;20142;-85
2022/01/05 02:58:49;;;;;;;28.63;18.98;;;;;;;;;;5074118;28;20460;-84
2022/01/05 03:01:15;;;;;;;30.52;19.20;;;;;;;;;;5074066;28;20525;-85
2022/01/05 03:03:41;;;;;;;25.50;17.95;;;;;;;;;;5074208;28;20032;-84
2022/01/05 03:06:07;;;;;;;25.52;18.85;;;;;;;;;;5072672;28;20073;-83
2022/01/05 03:08:33;;;;;;;24.85;18.42;;;;;;;;;;5073833;28;20041;-84
2022/01/05 03:11:00;;;;;;;24.48;16.90;;;;;;;;;;5073960;28;20070;-84
2022/01/05 03:13:26;;;;;;;26.48;18.05;;;;;;;;;;5072786;28;20396;-83
2022/01/05 03:15:53;;;;;;;25.13;17.17;;;;;;;;;;5073758;28;20032;-82
2022/01/05 03:18:19;;;;;;;23.42;16.45;;;;;;;;;;5073706;28;20090;-83
2022/01/05 03:20:47;;;;;;;20.10;15.27;;;;;;;;;;5072542;28;20033;-83
2022/01/05 03:23:13;;;;;;;22.27;16.30;;;;;;;;;;5072187;28;20364;-83
2022/01/05 03:25:40;;;;;;;24.20;16.98;;;;;;;;;;5073614;28;20115;-84
2022/01/05 03:28:07;;;;;;;27.00;19.63;;;;;;;;;;5072377;28;20067;-82
2022/01/05 03:30:33;;;;;;;34.45;25.27;;;;;;;;;;5073725;28;20483;-82
2022/01/05 03:35:27;;;;;;;31.52;21.67;;;;;;;;;;5073545;28;20372;-84
2022/01/05 03:37:55;;;;;;;31.65;20.90;;;;;;;;;;5073566;28;20368;-82
2022/01/05 03:40:22;;;;;;;46.13;30.83;;;;;;;;;;5072139;28;20533;-84
2022/01/05 03:42:48;;;;;;;27.00;19.17;;;;;;;;;;5073498;28;20056;-84
2022/01/05 03:45:14;;;;;;;34.50;21.77;;;;;;;;;;5073610;28;20031;-83
2022/01/05 03:47:40;;;;;;;33.25;22.20;;;;;;;;;;5072108;28;20380;-82
2022/01/05 03:50:07;;;;;;;41.22;25.48;;;;;;;;;;5073435;28;20111;-85
2022/01/05 03:52:33;;;;;;;36.13;26.50;;;;;;;;;;5073429;28;20025;-82
2022/01/05 03:54:59;;;;;;;27.15;20.88;;;;;;;;;;5072185;28;20021;-82
2022/01/05 03:57:28;;;;;;;29.50;20.63;;;;;;;;;;5073262;28;20032;-84
2022/01/05 03:59:54;;;;;;;34.65;21.80;;;;;;;;;;5073480;28;20035;-85
2022/01/05 04:02:23;;;;;;;29.00;20.30;;;;;;;;;;5073224;28;20029;-82
2022/01/05 04:04:49;;;;;;;29.45;20.33;;;;;;;;;;5071915;28;20465;-82
2022/01/05 04:07:16;;;;;;;38.15;24.00;;;;;;;;;;5071755;28;20040;-83
2022/01/05 04:09:42;;;;;;;36.35;24.42;;;;;;;;;;5073263;28;20495;-85
2022/01/05 04:12:09;;;;;;;30.70;20.77;;;;;;;;;;5073231;28;20024;-84
2022/01/05 04:14:35;;;;;;;26.10;19.80;;;;;;;;;;5073346;28;20048;-84
2022/01/05 04:17:01;;;;;;;26.63;18.73;;;;;;;;;;5073154;28;20375;-83
2022/01/05 04:19:27;;;;;;;25.55;18.20;;;;;;;;;;5073045;28;20025;-84
2022/01/05 04:21:53;;;;;;;32.58;21.98;;;;;;;;;;5073119;28;20033;-84
2022/01/05 04:24:19;;;;;;;42.92;28.02;;;;;;;;;;5073019;28;20383;-84
2022/01/05 04:26:45;;;;;;;44.17;27.83;;;;;;;;;;5072747;28;20055;-85
2022/01/05 04:29:12;;;;;;;26.17;20.98;;;;;;;;;;5072958;28;20035;-83
2022/01/05 04:31:38;;;;;;;28.20;20.80;;;;;;;;;;5073042;28;20040;-82
2022/01/05 04:34:04;;;;;;;22.48;17.08;;;;;;;;;;5071659;28;20031;-83
2022/01/05 04:36:30;;;;;;;25.60;19.55;;;;;;;;;;5074897;28;20480;-82
2022/01/05 04:38:56;;;;;;;29.95;20.90;;;;;;;;;;5076842;28;20024;-81
2022/01/05 04:41:22;;;;;;;31.35;23.30;;;;;;;;;;5076594;28;20033;-81
2022/01/05 04:43:48;;;;;;;38.70;27.80;;;;;;;;;;5076861;28;20024;-83
2022/01/05 04:46:14;;;;;;;44.60;27.88;;;;;;;;;;5076628;28;20060;-82
2022/01/05 04:48:42;;;;;;;33.20;23.50;;;;;;;;;;5076413;28;20075;-82
2022/01/05 04:51:08;;;;;;;34.40;23.42;;;;;;;;;;5076859;28;20028;-76
2022/01/05 04:53:34;;;;;;;31.92;23.25;;;;;;;;;;5076553;28;20035;-78
2022/01/05 04:56:03;;;;;;;36.92;24.00;;;;;;;;;;5076424;28;20372;-75
2022/01/05 04:58:31;;;;;;;33.83;23.63;;;;;;;;;;5076187;28;20085;-75
2022/01/05 05:00:57;;;;;;;33.50;22.58;;;;;;;;;;5076113;28;20393;-77
2022/01/05 05:03:26;;;;;;;41.90;30.70;;;;;;;;;;5076310;28;20033;-74
2022/01/05 05:05:52;;;;;;;40.72;28.77;;;;;;;;;;5076522;28;20037;-78
2022/01/05 05:08:18;;;;;;;42.35;28.30;;;;;;;;;;5076023;28;20090;-78
2022/01/05 05:10:44;;;;;;;31.88;23.00;;;;;;;;;;5075960;28;20456;-76
2022/01/05 05:13:11;;;;;;;34.92;24.95;;;;;;;;;;5076201;28;20028;-78
2022/01/05 05:15:37;;;;;;;49.35;31.98;;;;;;;;;;5076348;28;20032;-75
2022/01/05 05:18:04;;;;;;;47.60;31.42;;;;;;;;;;5076188;28;20038;-77
2022/01/05 05:20:30;;;;;;;39.72;27.70;;;;;;;;;;5074710;28;20025;-76
2022/01/05 05:22:57;;;;;;;43.20;29.48;;;;;;;;;;5076267;28;20021;-77
2022/01/05 05:25:23;;;;;;;37.42;25.05;;;;;;;;;;5075769;28;20052;-75
2022/01/05 05:27:51;;;;;;;35.90;25.02;;;;;;;;;;5075757;28;20067;-77
2022/01/05 05:30:17;;;;;;;42.45;31.35;;;;;;;;;;5075687;28;20036;-75
2022/01/05 05:32:43;;;;;;;87.72;58.03;;;;;;;;;;5074566;28;20025;-78
2022/01/05 05:35:09;;;;;;;33.85;25.42;;;;;;;;;;5075378;28;20036;-77
2022/01/05 05:37:36;;;;;;;47.45;34.28;;;;;;;;;;5075671;28;20028;-75
2022/01/05 05:40:06;;;;;;;53.20;33.78;;;;;;;;;;5075635;28;20082;-77
2022/01/05 05:42:32;;;;;;;59.42;36.60;;;;;;;;;;5075598;28;20032;-77
2022/01/05 05:44:58;;;;;;;60.88;35.33;;;;;;;;;;5075531;28;20028;-77
2022/01/05 05:47:24;;;;;;;48.05;29.70;;;;;;;;;;5075246;28;20072;-77
2022/01/05 05:49:50;;;;;;;47.20;28.67;;;;;;;;;;5075612;28;20035;-74
2022/01/05 05:52:19;;;;;;;70.13;41.60;;;;;;;;;;5075393;28;20099;-74
2022/01/05 05:54:45;;;;;;;62.28;40.00;;;;;;;;;;5075203;28;20024;-77
2022/01/05 05:57:11;;;;;;;56.03;36.22;;;;;;;;;;5075260;28;20024;-76
2022/01/05 05:59:38;;;;;;;48.00;32.40;;;;;;;;;;5075221;28;20047;-75
2022/01/05 06:02:04;;;;;;;45.70;32.60;;;;;;;;;;5074942;28;20024;-76
2022/01/05 06:04:33;;;;;;;58.60;39.45;;;;;;;;;;5075375;28;20477;-77
2022/01/05 06:06:59;;;;;;;61.65;40.63;;;;;;;;;;5074822;28;20123;-76
2022/01/05 06:09:25;;;;;;;66.28;45.33;;;;;;;;;;5075074;28;20103;-77
2022/01/05 06:11:51;;;;;;;90.22;55.35;;;;;;;;;;5074683;28;20078;-76
2022/01/05 06:14:17;;;;;;;93.60;56.80;;;;;;;;;;5075198;28;20079;-77
2022/01/05 06:16:43;;;;;;;107.65;66.78;;;;;;;;;;5074684;28;20383;-76
2022/01/05 06:19:10;;;;;;;69.43;46.65;;;;;;;;;;5074567;28;20024;-75
2022/01/05 06:21:36;;;;;;;76.00;46.92;;;;;;;;;;5074526;28;20494;-74
2022/01/05 06:24:05;;;;;;;67.43;42.30;;;;;;;;;;5072699;28;20099;-76
2022/01/05 06:26:31;;;;;;;65.18;39.40;;;;;;;;;;5071813;28;20044;-76
2022/01/05 06:28:57;;;;;;;52.53;35.88;;;;;;;;;;5071771;28;20062;-76
2022/01/05 06:31:29;;;;;;;48.63;32.53;;;;;;;;;;5073004;28;20433;-77
2022/01/05 06:33:56;;;;;;;53.17;34.92;;;;;;;;;;5072308;28;20032;-76
2022/01/05 06:36:22;;;;;;;48.25;33.47;;;;;;;;;;5073409;28;20097;-77
2022/01/05 06:38:49;;;;;;;44.95;28.55;;;;;;;;;;5069562;28;20037;-79
2022/01/05 06:41:15;;;;;;;37.88;25.42;;;;;;;;;;5070110;28;20045;-78
2022/01/05 06:43:42;;;;;;;54.60;35.25;;;;;;;;;;5071806;28;20108;-74
2022/01/05 06:46:08;;;;;;;56.58;39.95;;;;;;;;;;5071957;28;20029;-74
2022/01/05 06:48:34;;;;;;;40.72;28.15;;;;;;;;;;5068906;28;20131;-76
2022/01/05 06:51:00;;;;;;;46.67;35.03;;;;;;;;;;5062835;28;20467;-75
2022/01/05 06:53:27;;;;;;;38.90;27.55;;;;;;;;;;5051324;28;20056;-80
2022/01/05 06:55:54;;;;;;;39.30;28.20;;;;;;;;;;5055411;28;20033;-78
2022/01/05 06:58:20;;;;;;;81.55;58.25;;;;;;;;;;5070258;28;20165;-74
2022/01/05 07:00:46;;;;;;;123.32;84.60;;;;;;;;;;5072218;28;20020;-74
2022/01/05 07:03:14;;;;;;;112.07;75.82;;;;;;;;;;5071602;28;20036;-73
2022/01/05 07:05:40;;;;;;;138.05;87.47;;;;;;;;;;5071489;28;20181;-78
2022/01/05 07:08:07;;;;;;;107.35;70.22;;;;;;;;;;5071295;28;20104;-77
2022/01/05 07:10:33;;;;;;;135.15;88.78;;;;;;;;;;5071796;28;20029;-74
2022/01/05 07:13:00;;;;;;;143.93;98.45;;;;;;;;;;5071257;28;20055;-76
2022/01/05 07:15:29;;;;;;;145.98;100.25;;;;;;;;;;5041269;28;20036;-77
2022/01/05 07:17:55;;;;;;;132.27;88.05;;;;;;;;;;5051763;28;20492;-75
2022/01/05 07:20:21;;;;;;;129.43;87.45;;;;;;;;;;5049788;28;20032;-77
2022/01/05 07:22:51;;;;;;;126.55;84.60;;;;;;;;;;5051408;28;20037;-75
2022/01/05 07:25:17;;;;;;;153.63;102.90;;;;;;;;;;5051228;28;20064;-76
2022/01/05 07:27:43;;;;;;;139.07;96.40;;;;;;;;;;5050947;28;20045;-76
2022/01/05 07:30:13;;;;;;;124.75;84.85;;;;;;;;;;5051232;28;20078;-75
2022/01/05 07:32:40;;;;;;;109.25;74.95;;;;;;;;;;5051212;28;20021;-76
2022/01/05 07:35:06;;;;;;;100.18;69.60;;;;;;;;;;5050997;28;20047;-76
2022/01/05 07:37:32;;;;;;;85.57;59.78;;;;;;;;;;5051032;28;20071;-77
2022/01/05 07:40:01;;;;;;;59.40;44.78;;;;;;;;;;5050595;28;20025;-76
2022/01/05 07:42:30;;;;;;;62.45;42.83;;;;;;;;;;5050664;28;20472;-77
2022/01/05 07:44:57;;;;;;;52.15;37.90;;;;;;;;;;5051196;28;20025;-75
2022/01/05 07:47:23;;;;;;;52.45;38.88;;;;;;;;;;5058845;28;20031;-78
2022/01/05 07:49:49;;;;;;;60.85;43.10;;;;;;;;;;5070791;28;20071;-77
2022/01/05 07:52:15;;;;;;;56.15;40.22;;;;;;;;;;5070401;28;20103;-74
2022/01/05 07:54:41;;;;;;;51.30;38.20;;;;;;;;;;5071163;28;20487;-77
2022/01/05 07:57:07;;;;;;;56.35;38.92;;;;;;;;;;5070502;28;20147;-79
2022/01/05 07:59:33;;;;;;;60.53;43.90;;;;;;;;;;5069906;28;20111;-76
2022/01/05 08:02:00;;;;;;;57.63;40.33;;;;;;;;;;5070075;28;20136;-76
2022/01/05 08:04:26;;;;;;;47.97;33.45;;;;;;;;;;5069535;28;20118;-77
2022/01/05 08:06:54;;;;;;;43.00;30.23;;;;;;;;;;5070039;28;20048;-76
2022/01/05 08:09:20;;;;;;;44.25;31.10;;;;;;;;;;5070041;28;20033;-80
2022/01/05 08:11:47;;;;;;;46.10;33.15;;;;;;;;;;5072794;28;20379;-76
2022/01/05 08:14:13;;;;;;;66.50;50.00;;;;;;;;;;5072704;28;20749;-77
2022/01/05 08:16:42;;;;;;;49.65;37.47;;;;;;;;;;5073960;28;20024;-75
2022/01/05 08:19:09;;;;;;;49.42;36.80;;;;;;;;;;5074284;28;20067;-76
2022/01/05 08:21:35;;;;;;;44.70;34.58;;;;;;;;;;5074564;28;20025;-75
2022/01/05 08:24:01;;;;;;;37.28;28.77;;;;;;;;;;5074314;28;20035;-76
2022/01/05 08:26:27;;;;;;;40.53;30.55;;;;;;;;;;5074076;28;20059;-76
2022/01/05 08:28:55;;;;;;;41.55;33.47;;;;;;;;;;5074554;28;20028;-75
2022/01/05 08:31:21;;;;;;;40.30;31.10;;;;;;;;;;5074930;28;20028;-77
2022/01/05 08:33:47;;;;;;;96.80;69.75;;;;;;;;;;5074505;28;20056;-75
2022/01/05 08:36:13;;;;;;;159.52;117.25;;;;;;;;;;5072773;28;20105;-75
2022/01/05 08:38:39;;;;;;;178.93;131.57;;;;;;;;;;5074148;28;20028;-77
2022/01/05 08:41:06;;;;;;;234.27;165.18;;;;;;;;;;5074022;28;20562;-76
2022/01/05 08:43:33;;;;;;;198.23;142.13;;;;;;;;;;5073970;28;20041;-74
2022/01/05 08:45:59;;;;;;;194.63;139.02;;;;;;;;;;5073700;28;20379;-75
2022/01/05 08:48:26;;;;;;;186.00;133.02;;;;;;;;;;5074041;28;20499;-74
2022/01/05 08:50:52;;;;;;;245.23;155.18;;;;;;;;;;5074191;28;20060;-79
2022/01/05 08:53:19;;;;;;;219.48;149.00;;;;;;;;;;5074067;28;20535;-76
2022/01/05 08:55:47;;;;;;;162.88;119.07;;;;;;;;;;5073978;28;20067;-76
2022/01/05 08:58:13;;;;;;;158.80;114.35;;;;;;;;;;5074239;28;20032;-77
2022/01/05 09:00:42;;;;;;;191.40;137.48;;;;;;;;;;5073999;28;20376;-75
2022/01/05 09:03:09;;;;;;;122.00;95.43;;;;;;;;;;5074006;28;20396;-77
2022/01/05 09:05:37;;;;;;;140.00;103.28;;;;;;;;;;5073845;28;20440;-77
2022/01/05 09:08:04;;;;;;;146.00;107.55;;;;;;;;;;5071994;28;20877;-76
2022/01/05 09:10:32;;;;;;;129.95;96.80;;;;;;;;;;5073828;28;20038;-80
2022/01/05 09:12:59;;;;;;;187.02;136.82;;;;;;;;;;5073632;28;20028;-80
2022/01/05 09:15:26;;;;;;;123.47;92.63;;;;;;;;;;5073971;28;20052;-81
2022/01/05 09:17:52;;;;;;;106.32;77.03;;;;;;;;;;5073487;28;20035;-75
2022/01/05 09:20:18;;;;;;;103.75;75.15;;;;;;;;;;5073949;28;20039;-73
2022/01/05 09:22:45;;;;;;;94.53;69.18;;;;;;;;;;5072159;28;20129;-78
2022/01/05 09:25:11;;;;;;;118.05;86.55;;;;;;;;;;5072760;28;20056;-78
2022/01/05 09:27:39;;;;;;;79.78;58.83;;;;;;;;;;5072579;28;20044;-75
2022/01/05 09:30:06;;;;;;;78.15;58.47;;;;;;;;;;5071222;28;20115;-74
2022/01/05 09:32:32;;;;;;;99.00;64.85;;;;;;;;;;5073294;28;20020;-74
2022/01/05 09:34:58;;;;;;;455.27;169.52;;;;;;;;;;5073171;28;20036;-76
2022/01/05 09:37:31;;;;;;;373.17;153.73;;;;;;;;;;5073526;28;20066;-78
2022/01/05 09:42:43;;;;;;;149.75;108.70;;;;;;;;;;5073617;28;20075;-76
2022/01/05 09:45:15;;;;;;;181.73;108.03;;;;;;;;;;5073196;28;20391;-77
2022/01/05 09:47:44;;;;;;;161.75;98.70;;;;;;;;;;5072488;28;20037;-79
2022/01/05 09:50:16;;;;;;;142.43;108.07;;;;;;;;;;5072928;28;20028;-79
2022/01/05 09:52:46;;;;;;;138.15;98.90;;;;;;;;;;5072311;28;20036;-77
2022/01/05 09:55:12;;;;;;;108.78;83.68;;;;;;;;;;5072226;28;20031;-78
2022/01/05 09:57:41;;;;;;;86.63;58.35;;;;;;;;;;5072707;28;20196;-83
2022/01/05 10:00:08;;;;;;;63.10;39.13;;;;;;;;;;5069800;28;20020;-75
2022/01/05 10:02:34;;;;;;;72.60;45.08;;;;;;;;;;5071520;28;20037;-77
2022/01/05 10:05:02;;;;;;;72.45;45.97;;;;;;;;;;5068761;28;20025;-75
2022/01/05 10:07:28;;;;;;;59.67;38.50;;;;;;;;;;5070144;28;20567;-76
2022/01/05 10:09:54;;;;;;;53.42;36.85;;;;;;;;;;5071544;28;20033;-75
2022/01/05 10:12:22;;;;;;;51.47;33.00;;;;;;;;;;5072243;28;20476;-76
2022/01/05 10:14:49;;;;;;;110.57;53.78;;;;;;;;;;5071486;28;20459;-77
2022/01/05 10:17:36;;;;;;;101.22;51.65;;;;;;;;;;5071331;28;20103;-74
2022/01/05 10:20:08;;;;;;;46.00;30.48;;;;;;;;;;5071099;28;20033;-78
2022/01/05 10:22:38;;;;;;;42.45;29.02;;;;;;;;;;5071607;28;20024;-77
2022/01/05 10:25:09;;;;;;;44.80;27.95;;;;;;;;;;5071256;28;20079;-76
2022/01/05 10:27:36;;;;;;;42.50;28.00;;;;;;;;;;5072002;28;20032;-77
2022/01/05 10:30:02;;;;;;;42.38;27.45;;;;;;;;;;5071380;28;20483;-75
2022/01/05 10:32:35;;;;;;;39.53;27.70;;;;;;;;;;5071656;28;20067;-79
2022/01/05 10:35:09;;;;;;;43.95;29.92;;;;;;;;;;5070229;28;20056;-77
2022/01/05 10:37:36;;;;;;;48.58;30.88;;;;;;;;;;5070884;28;20059;-77
2022/01/05 10:40:05;;;;;;;60.05;33.42;;;;;;;;;;5070664;28;20048;-77
2022/01/05 10:42:32;;;;;;;39.33;25.95;;;;;;;;;;5071351;28;20078;-78
2022/01/05 10:44:59;;;;;;;45.33;30.33;;;;;;;;;;5071448;28;20103;-74
2022/01/05 10:47:25;;;;;;;45.72;30.35;;;;;;;;;;5071709;28;20036;-75
2022/01/05 10:49:52;;;;;;;40.22;26.48;;;;;;;;;;5071733;28;20161;-75
2022/01/05 10:52:24;;;;;;;39.45;27.08;;;;;;;;;;5070563;28;20028;-76
2022/01/05 10:54:51;;;;;;;43.88;30.20;;;;;;;;;;5071805;28;20067;-76
2022/01/05 10:57:18;;;;;;;46.35;32.20;;;;;;;;;;5071323;28;20044;-76
2022/01/05 10:59:48;;;;;;;48.67;33.05;;;;;;;;;;5071818;28;20472;-78
2022/01/05 11:02:27;;;;;;;48.17;33.40;;;;;;;;;;5071264;28;20111;-73
2022/01/05 11:04:55;;;;;;;64.93;43.22;;;;;;;;;;5069463;28;20024;-76
2022/01/05 11:07:24;;;;;;;49.28;33.22;;;;;;;;;;5071237;28;20395;-75
2022/01/05 11:09:59;;;;;;;50.83;32.67;;;;;;;;;;5071400;28;20471;-75
2022/01/05 11:12:25;;;;;;;;;;;;;;;;;;5069160;28;20033;-78
2022/01/05 11:14:51;;;;;;;81.80;54.97;;;;;;;;;;5058444;28;19909;-75
2022/01/05 11:17:19;;;;;;;64.22;42.72;;;;;;;;;;5061762;28;20032;-74
2022/01/05 11:19:45;;;;;;;43.42;28.98;;;;;;;;;;5057750;28;20064;-76
2022/01/05 11:22:14;;;;;;;39.38;28.17;;;;;;;;;;5057764;28;20452;-79
2022/01/05 11:24:40;;;;;;;47.28;34.40;;;;;;;;;;5055436;28;20032;-76
2022/01/05 11:27:07;;;;;;;45.08;31.25;;;;;;;;;;5070871;28;20048;-77
2022/01/05 11:29:34;;;;;;;44.00;30.77;;;;;;;;;;5071514;28;20021;-73
2022/01/05 11:32:04;;;;;;;41.22;30.23;;;;;;;;;;5071510;28;20107;-73
2022/01/05 11:34:31;;;;;;;46.33;32.83;;;;;;;;;;5070197;28;20555;-74
2022/01/05 11:36:57;;;;;;;50.22;35.05;;;;;;;;;;5071739;28;20033;-78
2022/01/05 11:39:24;;;;;;;49.05;34.70;;;;;;;;;;5070376;28;20078;-81
2022/01/05 11:41:51;;;;;;;44.65;31.48;;;;;;;;;;5071965;28;20025;-78
2022/01/05 11:44:17;;;;;;;57.58;39.90;;;;;;;;;;5071467;28;20028;-77
2022/01/05 11:46:46;;;;;;;40.10;26.35;;;;;;;;;;5072018;28;20020;-76
2022/01/05 11:49:13;;;;;;;42.47;29.00;;;;;;;;;;5072138;28;20099;-74
2022/01/05 11:51:42;;;;;;;32.55;24.02;;;;;;;;;;5072117;28;20111;-79
2022/01/05 11:54:15;;;;;;;31.13;21.98;;;;;;;;;;5071913;28;20028;-76
2022/01/05 11:56:47;;;;;;;25.63;19.05;;;;;;;;;;5068970;28;20024;-75
2022/01/05 11:59:35;;;;;;;30.48;22.75;;;;;;;;;;5068961;28;20025;-74
2022/01/05 12:02:09;;;;;;;31.77;23.42;;;;;;;;;;5070276;28;20028;-77
2022/01/05 12:04:56;;;;;;;34.00;22.60;;;;;;;;;;5071201;28;20032;-75
2022/01/05 12:07:40;;;;;;;60.45;30.40;;;;;;;;;;5051942;28;20124;-74
2022/01/05 12:13:14;;;;;;;42.58;25.00;;;;;;;;;;5051829;28;20114;-76
2022/01/05 12:15:59;;;;;;;52.72;27.50;;;;;;;;;;5050739;28;20021;-76
2022/01/05 12:18:25;;;;;;;;;;;;;;;;;;5051552;28;20076;-73
2022/01/05 12:20:52;;;;;;;77.65;35.85;;;;;;;;;;5050213;28;20011;-76
2022/01/05 12:23:25;;;;;;;47.08;27.42;;;;;;;;;;5051454;28;20488;-76
2022/01/05 12:26:10;;;;;;;48.95;28.77;;;;;;;;;;5051142;28;20048;-75
2022/01/05 12:28:36;;;;;;;;;;;;;;;;;;5051897;28;20532;-76
2022/01/05 12:31:03;;;;;;;89.50;39.17;;;;;;;;;;5051345;28;19904;-77
2022/01/05 12:33:51;;;;;;;51.88;30.63;;;;;;;;;;5070049;28;20035;-75
2022/01/05 12:36:36;;;;;;;31.98;21.80;;;;;;;;;;5070476;28;20047;-73
2022/01/05 12:39:06;;;;;;;32.30;21.58;;;;;;;;;;5068775;28;20036;-78
2022/01/05 12:41:42;;;;;;;33.90;24.00;;;;;;;;;;5071311;28;20533;-76
2022/01/05 12:44:28;;;;;;;35.88;25.85;;;;;;;;;;5071424;28;20031;-76
2022/01/05 12:46:57;;;;;;;46.08;34.28;;;;;;;;;;5071576;28;20033;-77
2022/01/05 12:49:33;;;;;;;70.70;50.25;;;;;;;;;;5071729;28;20558;-75
2022/01/05 12:52:01;;;;;;;61.20;47.28;;;;;;;;;;5070885;28;20029;-75
2022/01/05 12:54:32;;;;;;;48.00;36.58;;;;;;;;;;5071141;28;20043;-78
2022/01/05 12:57:21;;;;;;;42.25;33.20;;;;;;;;;;5072113;28;20059;-76
2022/01/05 12:59:50;;;;;;;44.22;33.30;;;;;;;;;;5073298;28;20033;-75
2022/01/05 13:02:35;;;;;;;44.92;33.20;;;;;;;;;;5074616;28;20128;-75
2022/01/05 13:05:03;;;;;;;47.85;36.30;;;;;;;;;;5075024;28;20048;-74
2022/01/05 13:07:32;;;;;;;47.85;31.70;;;;;;;;;;5074712;28;20090;-74
2022/01/05 13:10:00;;;;;;;39.42;28.75;;;;;;;;;;5074286;28;20039;-74
2022/01/05 13:12:29;;;;;;;35.10;25.92;;;;;;;;;;5074340;28;20029;-75
2022/01/05 13:15:03;;;;;;;37.50;26.92;;;;;;;;;;5074301;28;20108;-75
2022/01/05 13:17:30;;;;;;;;;;;;;;;;;;5075514;28;20028;-72
2022/01/05 13:20:03;;;;;;;35.20;26.17;;;;;;;;;;5074647;28;19914;-74
2022/01/05 13:22:35;;;;;;;70.20;40.08;;;;;;;;;;5075027;28;20379;-77
2022/01/05 13:25:06;;;;;;;67.63;38.17;;;;;;;;;;5073885;28;20147;-72
2022/01/05 13:27:35;;;;;;;51.95;34.28;;;;;;;;;;5074106;28;20126;-76
2022/01/05 13:30:04;;;;;;;52.25;35.00;;;;;;;;;;5072957;28;20024;-76
2022/01/05 13:32:30;;;;;;;56.15;36.55;;;;;;;;;;5074825;28;20032;-77
2022/01/05 13:35:16;;;;;;;50.35;32.67;;;;;;;;;;5073018;28;20038;-75
2022/01/05 13:37:45;;;;;;;62.65;38.05;;;;;;;;;;5074168;28;20472;-75
2022/01/05 13:40:11;;;;;;;65.63;38.58;;;;;;;;;;5074086;28;20511;-75
2022/01/05 13:42:39;;;;;;;61.63;34.67;;;;;;;;;;5074100;28;20484;-78
2022/01/05 13:45:07;;;;;;;61.03;35.63;;;;;;;;;;5074079;28;20107;-75
2022/01/05 13:47:33;;;;;;;46.65;30.45;;;;;;;;;;5074047;28;20039;-76
2022/01/05 13:50:21;;;;;;;30.15;22.35;;;;;;;;;;5074195;28;20036;-75
2022/01/05 13:52:54;;;;;;;37.25;24.17;;;;;;;;;;5071946;28;20499;-74
2022/01/05 13:55:25;;;;;;;76.53;47.33;;;;;;;;;;5073886;28;20403;-73
2022/01/05 13:58:02;;;;;;;108.00;67.22;;;;;;;;;;5073567;28;20619;-75
2022/01/05 14:00:28;;;;;;;84.70;55.75;;;;;;;;;;5072773;28;20036;-74
2022/01/05 14:02:54;;;;;;;81.53;48.03;;;;;;;;;;5071783;28;20044;-76
2022/01/05 14:05:20;;;;;;;88.35;47.75;;;;;;;;;;5074265;28;20025;-77
2022/01/05 14:07:46;;;;;;;60.92;40.28;;;;;;;;;;5073749;28;20048;-76
2022/01/05 14:10:14;;;;;;;89.57;49.28;;;;;;;;;;5072214;28;20032;-75
2022/01/05 14:12:48;;;;;;;54.72;38.85;;;;;;;;;;5073430;28;20475;-77
2022/01/05 14:15:15;;;;;;;73.50;41.53;;;;;;;;;;5073347;28;20045;-75
2022/01/05 14:17:58;;;;;;;64.80;44.58;;;;;;;;;;5072681;28;20065;-79
2022/01/05 14:20:24;;;;;;;82.32;50.63;;;;;;;;;;5071434;28;20031;-76
2022/01/05 14:22:59;;;;;;;60.60;37.83;;;;;;;;;;5072947;28;20029;-76
2022/01/05 14:25:44;;;;;;;54.50;32.60;;;;;;;;;;5071151;28;20131;-78
2022/01/05 14:28:14;;;;;;;73.72;40.30;;;;;;;;;;5071548;28;20037;-78
2022/01/05 14:30:47;;;;;;;97.88;52.72;;;;;;;;;;5072133;28;20052;-75